OTHH Airport Information

Runway Information
Airport Frequencies
Airport Navaids
Airport Weather Information & NOTAM
ADDS - METARS form results

(0227 UTC 22 November 2019)
Data provider http://aviationweather.gov/metar/data/
 
METAR text: OTHH 220200Z AUTO 30010KT CAVOK 19/12 Q1018 NOSIG
Conditions at: OTHH (DOHA HAMAD INTL , QA) observed 0200 UTC 22 November 2019
Temperature: 19.0°C (66°F)
Dewpoint: 12.0°C (54°F) [RH = 64%]
Pressure (altimeter): 30.06 inches Hg (1018.0 mb)
Winds: from the WNW (300 degrees) at 12 MPH (10 knots; 5.1 m/s)
Visibility: 6 or more miles (10+ km)
Ceiling: ceiling and visibility are OK
Clouds: unknown
Weather: no significant weather observed at this time

Forecast for: OTHH (DOHA HAMAD INTL , QA)
Text: TAF OTHH 212302Z 2200/2306 30012KT 9000 NSC
Forecast period: 0000 UTC 22 November 2019 to 0600 UTC 23 November 2019
Forecast type: FROM: standard forecast or significant change
Winds: from the WNW (300 degrees) at 14 MPH (12 knots; 6.2 m/s)
Visibility: 6 miles (9 km)
Ceiling: unknown
Clouds: missing
Weather: no significant weather forecast for this period